Time;durP1;ratioP1;P1;durP2;ratioP2;P2;SDS_P1;SDS_P2;PMS_P1;PMS_P2;Temp;Humidity;BMP_temperature;BMP_pressure;BME280_temperature;BME280_humidity;BME280_pressure;Samples;Min_cycle;Max_cycle;Signal;HPM_P1;HPM_P2
2021/03/04 00:01:30;;;;;;;34.03;27.03;;;6.60;73.50;;;;;;5084109;28;20491;-82
2021/03/04 00:03:56;;;;;;;34.00;26.67;;;6.70;73.60;;;;;;5080560;28;20499;-84
2021/03/04 00:06:22;;;;;;;31.50;25.40;;;6.70;73.60;;;;;;5075692;28;20471;-83
2021/03/04 00:08:49;;;;;;;29.77;24.40;;;6.60;73.40;;;;;;5083590;28;20534;-82
2021/03/04 00:11:15;;;;;;;31.57;26.23;;;6.60;73.40;;;;;;5085220;28;20455;-84
2021/03/04 00:13:42;;;;;;;33.93;25.70;;;6.60;73.00;;;;;;5082998;28;20510;-83
2021/03/04 00:16:09;;;;;;;30.50;24.57;;;6.60;73.20;;;;;;5083051;28;20452;-83
2021/03/04 00:18:36;;;;;;;32.03;25.00;;;6.60;73.50;;;;;;5080109;28;20585;-82
2021/03/04 00:21:03;;;;;;;36.60;25.37;;;6.70;73.40;;;;;;5083197;28;20494;-83
2021/03/04 00:23:30;;;;;;;31.83;24.43;;;6.70;72.90;;;;;;5084231;28;20479;-84
2021/03/04 00:25:56;;;;;;;32.90;24.93;;;6.70;73.30;;;;;;5088369;28;20483;-84
2021/03/04 00:28:22;;;;;;;29.23;24.37;;;6.70;73.30;;;;;;5084299;28;20540;-84
2021/03/04 00:30:50;;;;;;;31.50;24.60;;;6.70;73.10;;;;;;5077005;28;20487;-83
2021/03/04 00:33:16;;;;;;;32.70;25.20;;;6.70;73.20;;;;;;5073064;28;20521;-84
2021/03/04 00:35:43;;;;;;;33.50;24.43;;;6.70;73.10;;;;;;5075710;28;20542;-84
2021/03/04 00:38:10;;;;;;;31.47;24.20;;;6.70;73.10;;;;;;5077511;28;21035;-84
2021/03/04 00:40:38;;;;;;;32.50;25.67;;;6.60;73.00;;;;;;5086244;28;20544;-84
2021/03/04 00:43:04;;;;;;;31.30;24.90;;;6.60;73.00;;;;;;5087297;28;20420;-82
2021/03/04 00:45:31;;;;;;;29.23;24.30;;;6.60;73.20;;;;;;5083121;28;20458;-82
2021/03/04 00:47:59;;;;;;;33.33;27.23;;;6.60;73.10;;;;;;5079135;28;20539;-84
2021/03/04 00:50:25;;;;;;;31.10;24.83;;;6.50;73.10;;;;;;5087436;28;20463;-82
2021/03/04 00:52:51;;;;;;;32.17;26.37;;;6.50;72.80;;;;;;5088158;28;20883;-82
2021/03/04 00:55:17;;;;;;;30.77;24.17;;;6.50;73.20;;;;;;5087685;28;20458;-82
2021/03/04 00:57:44;;;;;;;29.03;23.93;;;6.60;73.10;;;;;;5084977;28;20440;-83
2021/03/04 01:00:11;;;;;;;30.07;25.70;;;6.60;73.10;;;;;;5086599;28;21139;-82
2021/03/04 01:02:39;;;;;;;32.40;25.10;;;6.60;72.90;;;;;;5082584;28;20612;-83
2021/03/04 01:05:08;;;;;;;34.07;23.97;;;6.70;72.90;;;;;;5083687;28;20528;-83
2021/03/04 01:07:34;;;;;;;33.27;24.73;;;6.60;72.40;;;;;;5081461;28;20464;-83
2021/03/04 01:10:01;;;;;;;32.43;24.57;;;6.60;72.40;;;;;;5083346;28;20510;-83
2021/03/04 01:12:27;;;;;;;27.17;23.17;;;6.70;72.50;;;;;;5082163;28;20464;-83
2021/03/04 01:14:54;;;;;;;29.73;24.00;;;6.70;72.80;;;;;;5086587;28;20481;-82
2021/03/04 01:17:20;;;;;;;28.67;24.33;;;6.60;72.50;;;;;;5086081;28;20496;-84
2021/03/04 01:19:47;;;;;;;30.57;24.23;;;6.60;72.60;;;;;;5097571;28;20471;-83
2021/03/04 01:22:14;;;;;;;29.10;23.70;;;6.60;72.10;;;;;;5087299;28;20490;-82
2021/03/04 01:24:41;;;;;;;33.70;24.20;;;;;;;;;;5082982;28;20487;-82
2021/03/04 01:27:08;;;;;;;32.80;24.20;;;6.70;72.30;;;;;;5077046;28;20479;-82
2021/03/04 01:29:35;;;;;;;31.77;25.30;;;6.70;72.60;;;;;;5083029;28;20473;-83
2021/03/04 01:32:02;;;;;;;29.97;24.60;;;6.60;72.10;;;;;;5087255;28;20456;-82
2021/03/04 01:34:31;;;;;;;35.30;25.93;;;6.60;72.10;;;;;;5089653;28;20466;-81
2021/03/04 01:36:57;;;;;;;33.57;24.97;;;6.60;72.40;;;;;;5078140;28;20458;-82
2021/03/04 01:39:24;;;;;;;34.50;24.83;;;6.60;72.30;;;;;;5085395;28;20802;-83
2021/03/04 01:41:52;;;;;;;33.37;23.60;;;6.60;72.10;;;;;;5077210;28;20485;-83
2021/03/04 01:44:18;;;;;;;30.97;25.00;;;6.60;72.40;;;;;;5082328;28;20449;-83
2021/03/04 01:46:45;;;;;;;38.60;26.80;;;6.60;72.50;;;;;;5079275;28;20553;-83
2021/03/04 01:49:11;;;;;;;30.67;25.40;;;6.60;72.20;;;;;;5078781;28;20537;-83
2021/03/04 01:51:38;;;;;;;30.43;24.33;;;6.60;72.40;;;;;;5074930;28;20536;-83
2021/03/04 01:54:07;;;;;;;30.23;24.43;;;6.60;72.40;;;;;;5078373;28;20494;-82
2021/03/04 01:56:34;;;;;;;30.53;24.00;;;6.60;72.80;;;;;;5082975;28;20455;-82
2021/03/04 01:59:01;;;;;;;32.50;24.97;;;6.60;72.30;;;;;;5087134;28;20478;-83
2021/03/04 02:01:30;;;;;;;30.20;25.47;;;6.60;72.40;;;;;;5085786;28;20437;-83
2021/03/04 02:03:57;;;;;;;33.67;25.70;;;6.60;72.60;;;;;;5104926;28;20463;-83
2021/03/04 02:06:31;;;;;;;31.20;24.77;;;6.60;72.40;;;;;;5081203;28;20459;-82
2021/03/04 02:09:00;;;;;;;32.33;23.93;;;6.60;72.50;;;;;;5080052;28;20545;-83
2021/03/04 02:11:30;;;;;;;33.03;25.57;;;6.60;72.40;;;;;;5095065;28;20903;-84
2021/03/04 02:14:05;;;;;;;28.03;24.03;;;6.60;72.60;;;;;;5084453;28;20440;-84
2021/03/04 02:16:36;;;;;;;37.17;25.17;;;6.60;72.60;;;;;;5092129;28;20534;-81
2021/03/04 02:19:08;;;;;;;32.30;25.23;;;6.50;72.70;;;;;;5088673;28;20476;-84
2021/03/04 02:21:45;;;;;;;34.20;25.47;;;6.50;72.60;;;;;;5096810;28;20451;-83
2021/03/04 02:24:38;;;;;;;29.93;24.63;;;6.50;72.50;;;;;;5097087;28;20455;-80
2021/03/04 02:27:10;;;;;;;30.63;23.60;;;6.40;72.60;;;;;;5078106;28;20471;-82
2021/03/04 02:29:43;;;;;;;34.40;25.47;;;6.30;72.70;;;;;;5080925;28;20987;-82
2021/03/04 02:32:10;;;;;;;32.23;25.80;;;6.30;72.90;;;;;;5080808;28;21091;-83
2021/03/04 02:34:45;;;;;;;32.43;25.37;;;6.20;72.90;;;;;;5084052;28;20459;-81
2021/03/04 02:37:14;;;;;;;30.77;24.97;;;6.20;72.90;;;;;;5078563;28;20539;-83
2021/03/04 02:39:43;;;;;;;33.03;25.60;;;6.20;73.20;;;;;;5076727;28;20495;-83
2021/03/04 02:42:11;;;;;;;33.00;25.03;;;6.20;73.40;;;;;;5079661;28;20531;-83
2021/03/04 02:44:40;;;;;;;31.30;24.60;;;6.40;73.30;;;;;;5081330;28;20807;-82
2021/03/04 02:47:06;;;;;;;31.97;25.60;;;6.40;73.00;;;;;;5075739;28;20842;-83
2021/03/04 02:49:33;;;;;;;34.27;25.17;;;6.50;72.80;;;;;;5077179;28;20468;-83
2021/03/04 02:51:59;;;;;;;30.60;24.10;;;6.50;72.80;;;;;;5085029;28;20522;-82
2021/03/04 02:54:26;;;;;;;33.23;25.53;;;6.50;73.10;;;;;;5075074;28;20474;-83
2021/03/04 02:56:52;;;;;;;27.80;23.97;;;6.60;73.00;;;;;;5075766;28;20502;-83
2021/03/04 02:59:22;;;;;;;34.20;25.60;;;6.60;72.90;;;;;;5078684;28;20542;-83
2021/03/04 03:01:48;;;;;;;31.50;25.63;;;6.60;72.80;;;;;;5088167;28;20503;-82
2021/03/04 03:04:18;;;;;;;32.10;27.00;;;6.70;72.60;;;;;;5079908;28;20460;-82
2021/03/04 03:06:45;;;;;;;33.40;25.53;;;6.70;72.60;;;;;;5078439;28;20470;-84
2021/03/04 03:09:12;;;;;;;41.93;25.50;;;6.70;72.60;;;;;;5081870;28;20452;-83
2021/03/04 03:11:39;;;;;;;32.93;25.57;;;6.70;72.60;;;;;;5087163;28;20457;-83
2021/03/04 03:14:08;;;;;;;31.43;25.13;;;6.70;72.50;;;;;;5092311;28;21017;-84
2021/03/04 03:16:35;;;;;;;32.17;24.70;;;6.70;72.30;;;;;;5087923;28;20840;-82
2021/03/04 03:19:02;;;;;;;32.73;25.13;;;6.70;71.90;;;;;;5092188;28;20531;-83
2021/03/04 03:21:28;;;;;;;31.57;24.20;;;6.70;71.90;;;;;;5079663;28;20468;-82
2021/03/04 03:23:54;;;;;;;33.40;24.80;;;6.60;72.10;;;;;;5084182;28;20455;-83
2021/03/04 03:26:21;;;;;;;32.17;24.43;;;6.60;72.00;;;;;;5089281;28;20510;-82
2021/03/04 03:28:47;;;;;;;33.97;26.47;;;6.60;71.70;;;;;;5090832;28;20515;-83
2021/03/04 03:31:17;;;;;;;37.20;26.23;;;6.60;72.00;;;;;;5089395;28;20487;-83
2021/03/04 03:33:46;;;;;;;34.60;24.87;;;6.60;72.20;;;;;;5083092;28;20519;-83
2021/03/04 03:36:13;;;;;;;30.80;24.57;;;6.60;72.20;;;;;;5078111;28;21189;-83
2021/03/04 03:38:40;;;;;;;31.20;25.00;;;6.50;72.10;;;;;;5085199;28;20507;-82
2021/03/04 03:41:07;;;;;;;30.93;23.50;;;6.50;72.30;;;;;;5089839;28;20446;-82
2021/03/04 03:43:35;;;;;;;31.10;25.20;;;6.50;72.30;;;;;;5089838;28;20460;-82
2021/03/04 03:46:04;;;;;;;28.90;23.73;;;6.40;71.90;;;;;;5086008;28;20492;-83
2021/03/04 03:48:31;;;;;;;31.73;24.40;;;6.40;72.10;;;;;;5088162;28;20501;-82
2021/03/04 03:51:00;;;;;;;32.40;25.03;;;6.40;72.40;;;;;;5089456;28;20504;-82
2021/03/04 03:53:27;;;;;;;32.70;24.60;;;6.40;72.30;;;;;;5081325;28;20442;-83
2021/03/04 03:55:55;;;;;;;33.20;25.40;;;6.40;72.10;;;;;;5080076;28;20502;-84
2021/03/04 03:58:23;;;;;;;30.50;24.10;;;6.40;72.10;;;;;;5076221;28;20448;-83
2021/03/04 04:00:53;;;;;;;27.77;23.20;;;6.30;71.80;;;;;;5079773;28;20456;-83
2021/03/04 04:03:20;;;;;;;33.00;24.50;;;6.30;72.20;;;;;;5074961;28;20522;-83
2021/03/04 04:05:46;;;;;;;32.53;23.63;;;6.30;71.90;;;;;;5081956;28;20452;-82
2021/03/04 04:08:14;;;;;;;32.40;25.20;;;6.30;72.30;;;;;;5076261;28;20551;-82
2021/03/04 04:10:40;;;;;;;31.70;24.40;;;6.30;72.00;;;;;;5075499;28;20462;-82
2021/03/04 04:13:07;;;;;;;29.77;24.77;;;6.20;71.90;;;;;;5070237;28;20455;-79
2021/03/04 04:15:33;;;;;;;37.27;23.90;;;6.30;72.40;;;;;;5070384;28;20459;-79
2021/03/04 04:18:01;;;;;;;31.50;23.30;;;6.30;72.60;;;;;;5073161;28;20500;-79
2021/03/04 04:20:28;;;;;;;32.07;24.83;;;6.20;72.40;;;;;;5077168;28;20538;-78
2021/03/04 04:22:56;;;;;;;31.73;24.47;;;6.20;72.20;;;;;;5069801;28;20817;-79
2021/03/04 04:25:25;;;;;;;38.40;25.60;;;6.20;72.60;;;;;;5067345;28;20448;-78
2021/03/04 04:27:53;;;;;;;31.50;25.23;;;6.20;72.60;;;;;;5070446;28;21034;-78
2021/03/04 04:30:21;;;;;;;29.03;23.67;;;6.10;72.70;;;;;;5065073;28;20778;-79
2021/03/04 04:32:47;;;;;;;32.60;25.00;;;6.10;72.40;;;;;;5082359;28;20440;-78
2021/03/04 04:35:16;;;;;;;35.20;24.50;;;6.00;72.70;;;;;;5066050;28;20454;-78
2021/03/04 04:37:43;;;;;;;34.70;23.17;;;6.00;72.90;;;;;;5073430;28;20444;-78
2021/03/04 04:40:10;;;;;;;34.40;24.60;;;5.90;72.70;;;;;;5074311;28;20537;-79
2021/03/04 04:42:38;;;;;;;31.40;24.17;;;5.90;73.00;;;;;;5071185;28;20524;-78
2021/03/04 04:45:06;;;;;;;29.80;25.37;;;5.90;73.10;;;;;;5061710;28;20451;-79
2021/03/04 04:47:33;;;;;;;34.47;24.00;;;5.80;73.20;;;;;;5075326;28;20485;-78
2021/03/04 04:49:59;;;;;;;33.30;26.03;;;5.80;73.00;;;;;;5066636;28;20456;-78
2021/03/04 04:52:25;;;;;;;34.03;25.70;;;5.80;73.10;;;;;;5071848;28;20478;-77
2021/03/04 04:54:52;;;;;;;32.70;24.40;;;5.80;73.50;;;;;;5076203;28;20551;-78
2021/03/04 04:57:18;;;;;;;31.13;23.27;;;5.80;73.50;;;;;;5072173;28;20451;-79
2021/03/04 04:59:45;;;;;;;32.10;23.87;;;5.70;73.60;;;;;;5064714;28;20483;-79
2021/03/04 05:02:12;;;;;;;31.57;24.20;;;5.70;73.40;;;;;;5073599;28;20443;-79
2021/03/04 05:04:38;;;;;;;35.50;26.03;;;5.70;73.50;;;;;;5069698;28;20547;-79
2021/03/04 05:07:05;;;;;;;29.97;23.13;;;5.70;73.70;;;;;;5070154;28;20890;-78
2021/03/04 05:09:31;;;;;;;33.37;24.37;;;5.70;73.30;;;;;;5069974;28;20541;-78
2021/03/04 05:11:57;;;;;;;32.80;24.57;;;5.70;73.40;;;;;;5067663;28;20463;-78
2021/03/04 05:14:25;;;;;;;31.93;24.20;;;5.70;73.70;;;;;;5074981;28;20545;-79
2021/03/04 05:16:52;;;;;;;35.77;26.30;;;5.70;73.40;;;;;;5071610;28;20484;-77
2021/03/04 05:19:18;;;;;;;34.27;24.33;;;5.60;73.70;;;;;;5070170;28;20443;-79
2021/03/04 05:21:44;;;;;;;37.07;25.07;;;5.60;73.80;;;;;;5069360;28;20520;-78
2021/03/04 05:24:12;;;;;;;30.97;23.63;;;5.60;73.90;;;;;;5068416;28;20450;-78
2021/03/04 05:26:38;;;;;;;34.50;24.77;;;5.60;73.80;;;;;;5068340;28;20491;-78
2021/03/04 05:29:05;;;;;;;36.33;24.07;;;5.50;73.90;;;;;;5069100;28;20454;-77
2021/03/04 05:31:31;;;;;;;34.60;25.37;;;5.50;74.00;;;;;;5068072;28;20842;-79
2021/03/04 05:33:59;;;;;;;41.50;25.23;;;5.50;74.10;;;;;;5070060;28;20462;-78
2021/03/04 05:36:25;;;;;;;30.53;23.83;;;5.50;73.80;;;;;;5065337;28;20963;-78
2021/03/04 05:38:51;;;;;;;33.70;25.00;;;5.50;74.00;;;;;;5066542;28;20455;-78
2021/03/04 05:41:21;;;;;;;33.60;23.10;;;5.50;73.60;;;;;;5069127;28;20472;-80
2021/03/04 05:43:48;;;;;;;32.90;25.77;;;5.50;73.90;;;;;;5066766;28;20453;-78
2021/03/04 05:46:15;;;;;;;32.40;25.03;;;5.60;73.60;;;;;;5062344;28;20474;-78
2021/03/04 05:48:44;;;;;;;37.00;25.30;;;5.70;73.20;;;;;;5070739;28;20986;-78
2021/03/04 05:51:14;;;;;;;32.77;22.80;;;5.70;73.40;;;;;;5067157;28;20497;-79
2021/03/04 05:53:46;;;;;;;33.90;24.00;;;5.80;73.30;;;;;;5070300;28;20918;-79
2021/03/04 05:56:15;;;;;;;35.23;23.07;;;5.80;73.10;;;;;;5064195;28;20806;-79
2021/03/04 05:58:43;;;;;;;34.60;24.07;;;5.90;72.90;;;;;;5065506;28;20515;-78
2021/03/04 06:01:10;;;;;;;32.07;24.37;;;5.90;72.90;;;;;;5070742;28;20514;-79
2021/03/04 06:03:37;;;;;;;31.17;25.73;;;5.90;73.00;;;;;;5070618;28;20516;-79
2021/03/04 06:06:04;;;;;;;33.30;23.37;;;5.90;72.70;;;;;;5064799;28;20557;-79
2021/03/04 06:08:31;;;;;;;33.13;23.63;;;6.00;73.00;;;;;;5065991;28;20466;-79
2021/03/04 06:10:57;;;;;;;31.60;24.67;;;6.00;72.80;;;;;;5074582;28;20451;-78
2021/03/04 06:13:25;;;;;;;168.87;46.47;;;6.10;73.10;;;;;;5071882;28;20471;-79
2021/03/04 06:15:53;;;;;;;50.33;27.70;;;6.10;72.60;;;;;;5072196;28;20486;-79
2021/03/04 06:18:19;;;;;;;39.10;24.20;;;6.20;72.50;;;;;;5069499;28;20475;-78
2021/03/04 06:20:46;;;;;;;28.40;23.43;;;6.10;72.20;;;;;;5076222;28;21019;-78
2021/03/04 06:23:13;;;;;;;31.17;23.90;;;6.20;72.40;;;;;;5067974;28;22238;-78
2021/03/04 06:25:40;;;;;;;35.23;24.50;;;6.20;72.40;;;;;;5063970;28;21169;-78
2021/03/04 06:28:07;;;;;;;30.77;22.90;;;6.20;72.00;;;;;;5068228;28;20572;-78
2021/03/04 06:30:35;;;;;;;36.70;24.57;;;6.20;71.90;;;;;;5068683;28;20966;-79
2021/03/04 06:33:03;;;;;;;26.40;22.80;;;6.20;72.10;;;;;;5067023;28;20479;-81
2021/03/04 06:35:32;;;;;;;34.30;24.00;;;6.20;71.80;;;;;;5079578;28;20541;-78
2021/03/04 06:37:58;;;;;;;31.23;23.33;;;6.20;71.80;;;;;;5077391;28;20440;-86
2021/03/04 06:40:27;;;;;;;38.25;25.20;;;6.30;72.30;;;;;;5078955;28;20494;-74
2021/03/04 06:42:54;;;;;;;29.40;22.90;;;6.40;71.90;;;;;;5086434;28;20204;-78
2021/03/04 06:45:26;;;;;;;29.90;22.40;;;6.40;71.70;;;;;;5083883;28;20885;-75
2021/03/04 06:47:52;;;;;;;36.90;23.33;;;6.60;71.60;;;;;;5078717;28;20557;-78
2021/03/04 06:50:24;;;;;;;30.27;22.63;;;6.60;71.40;;;;;;5072458;28;20450;-75
2021/03/04 06:52:50;;;;;;;36.10;25.30;;;6.60;71.30;;;;;;5068169;28;20454;-79
2021/03/04 06:55:17;;;;;;;33.73;23.37;;;6.70;71.30;;;;;;5067262;28;20455;-74
2021/03/04 06:57:59;;;;;;;45.40;25.17;;;6.70;71.30;;;;;;5069307;28;20444;-74
2021/03/04 07:00:26;;;;;;;50.87;25.20;;;6.80;71.70;;;;;;5072243;28;20479;-74
2021/03/04 07:02:53;;;;;;;29.50;22.60;;;6.80;71.10;;;;;;5072331;28;20485;-73
2021/03/04 07:05:21;;;;;;;30.80;22.80;;;6.90;71.00;;;;;;5064222;28;21104;-76
2021/03/04 07:07:51;;;;;;;31.63;22.40;;;6.90;71.00;;;;;;5062096;28;20813;-74
2021/03/04 07:10:18;;;;;;;31.20;23.30;;;6.90;70.80;;;;;;5065689;28;20458;-72
2021/03/04 07:12:46;;;;;;;33.70;23.80;;;6.90;70.90;;;;;;5073727;28;20880;-73
2021/03/04 07:15:15;;;;;;;33.50;22.10;;;6.90;70.50;;;;;;5069072;28;20806;-72
2021/03/04 07:17:42;;;;;;;28.87;24.30;;;6.90;70.70;;;;;;5069782;28;21088;-71
2021/03/04 07:20:14;;;;;;;29.13;22.27;;;6.90;70.70;;;;;;5065454;28;20459;-72
2021/03/04 07:22:44;;;;;;;34.27;23.77;;;6.90;70.60;;;;;;5069805;28;20558;-71
2021/03/04 07:25:12;;;;;;;36.20;23.37;;;6.90;70.40;;;;;;5069401;28;20462;-73
2021/03/04 07:27:39;;;;;;;32.70;24.10;;;7.00;70.70;;;;;;5069276;28;20492;-72
2021/03/04 07:30:07;;;;;;;36.87;24.00;;;7.00;70.40;;;;;;5068420;28;20793;-72
2021/03/04 07:32:35;;;;;;;31.60;24.13;;;7.00;70.30;;;;;;5068994;28;20449;-73
2021/03/04 07:35:03;;;;;;;39.90;23.03;;;7.00;70.10;;;;;;5069500;28;20451;-73
2021/03/04 07:37:30;;;;;;;35.50;24.77;;;7.10;70.10;;;;;;5069150;28;20521;-73
2021/03/04 07:40:00;;;;;;;39.57;23.50;;;7.10;70.00;;;;;;5071225;28;20492;-72
2021/03/04 07:42:28;;;;;;;40.60;24.10;;;7.20;69.90;;;;;;5069665;28;20460;-72
2021/03/04 07:44:55;;;;;;;33.23;25.13;;;7.40;69.70;;;;;;5067825;28;20459;-72
2021/03/04 07:47:27;;;;;;;63.53;26.03;;;7.50;69.40;;;;;;5070068;28;20558;-72
2021/03/04 07:49:54;;;;;;;35.43;24.43;;;7.60;69.30;;;;;;5071909;28;20474;-71
2021/03/04 07:52:22;;;;;;;37.53;22.90;;;7.70;69.20;;;;;;5068598;28;20474;-70
2021/03/04 07:54:51;;;;;;;27.20;21.83;;;7.70;68.80;;;;;;5067060;28;20875;-75
2021/03/04 07:57:19;;;;;;;36.40;22.70;;;7.80;69.10;;;;;;5072820;28;20451;-76
2021/03/04 07:59:52;;;;;;;31.63;23.63;;;7.90;68.60;;;;;;5067685;28;20927;-76
2021/03/04 08:02:26;;;;;;;36.20;24.57;;;8.00;68.30;;;;;;5069526;28;20938;-75
2021/03/04 08:05:04;;;;;;;36.90;25.40;;;8.00;68.30;;;;;;5082834;28;20446;-82
2021/03/04 08:07:31;;;;;;;33.37;25.70;;;8.20;68.10;;;;;;5089899;28;20470;-85
2021/03/04 08:10:06;;;;;;;33.63;24.23;;;8.30;67.80;;;;;;5085879;28;20455;-82
2021/03/04 08:12:48;;;;;;;56.87;22.77;;;8.50;67.60;;;;;;5082588;28;20515;-82
2021/03/04 08:15:15;;;;;;;42.67;22.90;;;8.50;67.20;;;;;;5086518;28;20459;-84
2021/03/04 08:17:42;;;;;;;39.70;23.53;;;8.60;66.90;;;;;;5093111;28;20477;-80
2021/03/04 08:20:12;;;;;;;37.43;23.60;;;8.70;66.60;;;;;;5081679;28;20452;-80
2021/03/04 08:22:45;;;;;;;44.60;22.87;;;8.70;66.20;;;;;;5081559;28;20460;-81
2021/03/04 08:25:18;;;;;;;33.87;23.70;;;8.80;66.10;;;;;;5079150;28;20468;-80
2021/03/04 08:27:44;;;;;;;35.77;23.10;;;9.00;65.70;;;;;;5081484;28;20475;-83
2021/03/04 08:30:13;;;;;;;37.97;24.20;;;9.10;65.40;;;;;;5082253;28;20822;-82
2021/03/04 08:32:42;;;;;;;30.40;22.40;;;9.30;64.90;;;;;;5081850;28;20447;-83
2021/03/04 08:38:12;;;;;;;30.17;22.30;;;9.50;64.30;;;;;;5095836;27;20510;-88
2021/03/04 08:40:41;;;;;;;41.53;24.75;;;9.70;62.10;;;;;;5095697;28;20447;-87
2021/03/04 08:43:12;;;;;;;31.23;21.63;;;9.80;61.70;;;;;;5104594;28;20199;-88
2021/03/04 08:45:39;;;;;;;32.77;21.17;;;10.00;60.10;;;;;;5107591;28;20456;-86
2021/03/04 08:48:08;;;;;;;40.63;21.63;;;10.00;59.40;;;;;;5098793;28;20458;-84
2021/03/04 08:50:38;;;;;;;28.30;20.40;;;10.20;59.00;;;;;;5093124;28;20462;-86
2021/03/04 08:53:11;;;;;;;27.07;20.90;;;10.10;58.60;;;;;;5091584;28;20504;-87
2021/03/04 08:55:44;;;;;;;25.13;17.43;;;10.30;58.40;;;;;;5089965;28;20531;-84
2021/03/04 08:58:14;;;;;;;25.80;17.87;;;10.50;57.10;;;;;;5089906;28;20444;-86
2021/03/04 09:00:49;;;;;;;29.90;18.80;;;10.50;56.50;;;;;;5084578;28;20456;-89
2021/03/04 09:03:17;;;;;;;21.80;16.93;;;10.60;55.90;;;;;;5082801;28;20451;-85
2021/03/04 09:05:47;;;;;;;32.93;16.90;;;10.70;55.30;;;;;;5085915;28;20521;-87
2021/03/04 09:08:18;;;;;;;32.30;16.70;;;10.70;55.10;;;;;;5096023;28;20945;-86
2021/03/04 09:10:48;;;;;;;21.40;17.07;;;10.90;54.80;;;;;;5092648;28;20501;-86
2021/03/04 09:13:25;;;;;;;24.63;18.00;;;11.00;54.30;;;;;;5092655;28;20443;-84
2021/03/04 09:15:57;;;;;;;23.17;15.70;;;11.10;54.20;;;;;;5096080;28;20489;-84
2021/03/04 09:18:25;;;;;;;22.93;16.73;;;11.30;53.40;;;;;;5094908;28;20493;-85
2021/03/04 09:20:53;;;;;;;22.67;15.70;;;11.60;53.20;;;;;;5095124;28;20470;-86
2021/03/04 09:23:22;;;;;;;24.20;15.73;;;11.90;52.40;;;;;;5092154;28;20974;-86
2021/03/04 09:25:56;;;;;;;21.50;14.80;;;12.10;51.80;;;;;;5083430;28;20452;-85
2021/03/04 09:28:25;;;;;;;21.48;15.82;;;12.00;51.50;;;;;;5090669;28;20474;-88
2021/03/04 09:31:08;;;;;;;16.97;15.17;;;12.20;51.20;;;;;;5088174;28;20262;-88
2021/03/04 09:33:39;;;;;;;23.67;15.13;;;12.60;50.70;;;;;;5088955;28;20532;-88
2021/03/04 09:36:07;;;;;;;22.67;15.23;;;12.70;50.00;;;;;;5081538;28;20560;-86
2021/03/04 09:38:40;;;;;;;24.67;16.00;;;12.80;50.30;;;;;;5084521;28;20490;-87
2021/03/04 09:41:13;;;;;;;36.83;15.67;;;12.80;49.90;;;;;;5078744;28;20455;-87
2021/03/04 09:43:43;;;;;;;25.33;15.10;;;12.60;50.00;;;;;;5081460;28;20474;-87
2021/03/04 09:46:10;;;;;;;34.53;18.00;;;12.80;49.90;;;;;;5081918;28;20507;-87
2021/03/04 09:48:39;;;;;;;21.93;15.10;;;13.10;49.90;;;;;;5082543;28;20452;-84
2021/03/04 09:51:06;;;;;;;18.80;14.80;;;13.10;49.40;;;;;;5086408;28;20453;-84
2021/03/04 09:53:47;;;;;;;25.52;16.80;;;12.90;49.20;;;;;;5081302;28;20533;-81
2021/03/04 09:56:20;;;;;;;17.73;13.50;;;12.80;49.50;;;;;;5065086;28;20248;-82
2021/03/04 09:58:47;;;;;;;22.03;15.37;;;12.70;49.50;;;;;;5076775;28;20457;-83
2021/03/04 10:01:14;;;;;;;33.73;15.70;;;12.60;49.50;;;;;;5079137;28;20830;-81
2021/03/04 10:03:41;;;;;;;24.53;15.70;;;12.80;49.50;;;;;;5074049;28;20457;-81
2021/03/04 10:06:20;;;;;;;66.77;22.07;;;12.70;49.50;;;;;;5080619;28;20517;-83
2021/03/04 10:08:53;;;;;;;31.53;14.70;;;12.80;49.50;;;;;;5073550;28;20450;-83
2021/03/04 10:11:22;;;;;;;22.93;14.93;;;13.20;49.40;;;;;;5064908;28;20953;-84
2021/03/04 10:13:49;;;;;;;25.83;14.67;;;13.30;49.10;;;;;;5077438;28;21221;-83
2021/03/04 10:16:16;;;;;;;26.30;14.90;;;13.40;49.10;;;;;;5073507;28;20496;-83
2021/03/04 10:18:44;;;;;;;18.20;13.43;;;13.60;49.00;;;;;;5070945;28;20461;-83
2021/03/04 10:21:12;;;;;;;29.47;15.67;;;13.60;48.40;;;;;;5073576;28;20537;-87
2021/03/04 10:23:39;;;;;;;17.70;13.70;;;13.70;48.60;;;;;;5066278;28;20457;-82
2021/03/04 10:26:06;;;;;;;59.13;18.87;;;13.60;48.50;;;;;;5078763;28;20448;-83
2021/03/04 10:28:33;;;;;;;41.23;15.10;;;13.50;48.20;;;;;;5072318;28;20445;-85
2021/03/04 10:31:00;;;;;;;20.97;14.20;;;13.50;48.80;;;;;;5081222;28;20940;-83
2021/03/04 10:33:27;;;;;;;18.47;13.50;;;13.70;48.20;;;;;;5070966;28;20447;-82
2021/03/04 10:35:54;;;;;;;45.30;16.67;;;14.00;47.70;;;;;;5068185;28;20477;-82
2021/03/04 10:38:21;;;;;;;27.40;13.77;;;13.80;47.60;;;;;;5067651;28;20446;-82
2021/03/04 10:40:49;;;;;;;36.00;16.63;;;13.80;47.70;;;;;;5063902;28;20479;-83
2021/03/04 10:43:17;;;;;;;25.07;14.50;;;13.90;47.80;;;;;;5067854;28;20481;-81
2021/03/04 10:45:43;;;;;;;18.87;13.40;;;13.90;47.60;;;;;;5068501;28;20472;-82
2021/03/04 10:48:12;;;;;;;18.30;13.63;;;13.90;47.50;;;;;;5072747;28;20461;-83
2021/03/04 10:50:38;;;;;;;22.90;13.50;;;14.00;47.60;;;;;;5068391;28;20454;-81
2021/03/04 10:53:05;;;;;;;20.60;14.00;;;14.20;47.50;;;;;;5066580;28;20442;-81
2021/03/04 10:55:31;;;;;;;18.70;14.23;;;14.30;47.20;;;;;;5061944;28;20522;-79
2021/03/04 10:57:58;;;;;;;21.37;12.77;;;14.40;47.20;;;;;;5073329;28;20469;-79
2021/03/04 11:00:26;;;;;;;22.33;15.17;;;14.30;47.20;;;;;;5071104;28;20446;-80
2021/03/04 11:02:52;;;;;;;22.53;13.97;;;13.80;47.60;;;;;;5096307;28;20448;-86
2021/03/04 11:05:20;;;;;;;20.30;12.97;;;13.60;48.00;;;;;;5086110;28;20463;-82
2021/03/04 11:07:47;;;;;;;18.10;14.17;;;13.70;48.30;;;;;;5076912;28;20441;-82
2021/03/04 11:10:14;;;;;;;25.80;13.53;;;13.50;48.30;;;;;;5077298;28;20464;-81
2021/03/04 11:12:40;;;;;;;21.17;14.02;;;13.40;48.50;;;;;;5077237;28;20446;-77
2021/03/04 11:15:08;;;;;;;24.88;15.50;;;13.40;48.60;;;;;;5077856;28;20500;-84
2021/03/04 11:17:35;;;;;;;18.90;13.63;;;13.40;48.70;;;;;;5073859;28;20218;-85
2021/03/04 11:20:03;;;;;;;18.93;14.23;;;13.20;48.70;;;;;;5077217;28;20445;-80
2021/03/04 11:22:30;;;;;;;21.83;14.33;;;13.30;49.00;;;;;;5076196;28;20960;-83
2021/03/04 11:24:57;;;;;;;20.13;12.63;;;13.30;48.70;;;;;;5066020;28;20454;-79
2021/03/04 11:27:23;;;;;;;23.97;14.83;;;13.40;48.90;;;;;;5078360;28;20440;-81
2021/03/04 11:29:51;;;;;;;21.30;14.73;;;13.60;48.90;;;;;;5066032;28;20982;-81
2021/03/04 11:32:18;;;;;;;19.90;15.00;;;13.60;48.80;;;;;;5078098;28;20434;-83
2021/03/04 11:34:45;;;;;;;24.87;14.63;;;13.40;48.60;;;;;;5075109;28;20494;-88
2021/03/04 11:37:12;;;;;;;19.73;13.87;;;13.30;49.10;;;;;;5081392;28;20487;-84
2021/03/04 11:39:38;;;;;;;29.10;14.67;;;13.40;48.90;;;;;;5070286;28;20961;-82
2021/03/04 11:42:07;;;;;;;20.03;14.20;;;13.50;48.80;;;;;;5070642;28;20451;-82
2021/03/04 11:44:33;;;;;;;20.03;14.13;;;13.60;48.90;;;;;;5078189;28;20451;-81
2021/03/04 11:47:00;;;;;;;21.43;15.20;;;14.00;48.80;;;;;;5082165;28;20468;-82
2021/03/04 11:49:27;;;;;;;22.30;14.43;;;14.20;48.70;;;;;;5076728;28;20441;-83
2021/03/04 11:51:55;;;;;;;18.70;15.87;;;14.00;48.50;;;;;;5075987;28;20455;-89
2021/03/04 11:54:21;;;;;;;31.93;15.00;;;14.00;48.60;;;;;;5075789;28;20445;-83
2021/03/04 11:56:48;;;;;;;28.43;15.40;;;14.30;49.10;;;;;;5082075;28;20468;-82
2021/03/04 11:59:14;;;;;;;26.97;15.60;;;14.50;48.40;;;;;;5083379;28;20445;-84
2021/03/04 12:01:41;;;;;;;28.53;16.50;;;14.70;48.60;;;;;;5067268;28;20456;-85
2021/03/04 12:04:08;;;;;;;47.50;18.00;;;15.20;48.50;;;;;;5084125;28;20460;-88
2021/03/04 12:06:35;;;;;;;18.07;14.83;;;14.70;48.30;;;;;;5093087;28;20459;-80
2021/03/04 12:09:03;;;;;;;24.83;16.10;;;14.70;48.50;;;;;;5074499;28;20446;-81
2021/03/04 12:11:29;;;;;;;20.20;15.07;;;15.00;48.40;;;;;;5070542;28;20663;-80
2021/03/04 12:13:56;;;;;;;21.53;15.47;;;14.90;48.40;;;;;;5070461;28;20450;-81
2021/03/04 12:21:46;;;;;;;21.10;16.40;;;15.10;48.30;;;;;;5105374;28;20557;-82
2021/03/04 12:24:14;;;;;;;25.33;17.10;;;15.10;48.20;;;;;;5093144;28;20445;-80
2021/03/04 12:26:41;;;;;;;22.40;17.77;;;15.40;48.30;;;;;;5098950;28;20552;-83
2021/03/04 12:29:07;;;;;;;24.97;17.43;;;15.00;48.20;;;;;;5105351;28;20451;-82
2021/03/04 12:31:34;;;;;;;23.43;17.97;;;15.00;48.40;;;;;;5103649;28;20456;-88
2021/03/04 12:34:03;;;;;;;27.10;18.23;;;15.00;48.60;;;;;;5081780;28;20793;-86
2021/03/04 12:36:31;;;;;;;47.53;22.83;;;15.30;48.50;;;;;;5097792;28;20467;-86
2021/03/04 12:38:59;;;;;;;84.20;24.40;;;15.30;48.20;;;;;;5096775;28;20507;-87
2021/03/04 12:41:27;;;;;;;38.93;20.20;;;15.20;48.30;;;;;;5095871;28;20476;-87
2021/03/04 12:43:55;;;;;;;26.37;19.27;;;15.10;48.30;;;;;;5097755;28;20461;-88
2021/03/04 12:46:21;;;;;;;24.63;18.67;;;15.10;48.40;;;;;;5101713;28;20962;-82